createdAt,value
2023-04-10T00:02:28.257Z,10.07
2023-04-10T00:04:56.407Z,9.67
2023-04-10T00:07:24.397Z,9.70
2023-04-10T00:09:52.565Z,10.70
2023-04-10T00:12:20.771Z,9.13
2023-04-10T00:14:48.839Z,10.07
2023-04-10T00:17:16.874Z,9.80
2023-04-10T00:19:46.396Z,10.77
2023-04-10T00:22:14.429Z,10.00
2023-04-10T00:24:42.563Z,9.13
2023-04-10T00:27:10.627Z,8.53
2023-04-10T00:29:38.624Z,9.77
2023-04-10T00:32:06.625Z,9.73
2023-04-10T00:34:34.638Z,10.70
2023-04-10T00:37:04.177Z,9.00
2023-04-10T00:39:32.152Z,11.00
2023-04-10T00:42:01.687Z,9.23
2023-04-10T00:44:29.638Z,9.00
2023-04-10T00:46:57.638Z,9.83
2023-04-10T00:49:25.739Z,9.73
2023-04-10T00:54:24.231Z,8.27
2023-04-10T00:56:52.617Z,10.50
2023-04-10T00:59:20.782Z,9.60
2023-04-10T01:01:48.969Z,10.40
2023-04-10T01:04:17.706Z,9.57
2023-04-10T01:06:55.739Z,9.43
2023-04-10T01:09:35.422Z,11.33
2023-04-10T01:12:16.996Z,7.30
2023-04-10T01:14:54.530Z,10.17
2023-04-10T01:17:30.849Z,7.40
2023-04-10T01:20:04.170Z,11.00
2023-04-10T01:22:36.807Z,9.63
2023-04-10T01:25:31.245Z,8.30
2023-04-10T01:28:12.463Z,9.97
2023-04-10T01:30:43.478Z,9.87
2023-04-10T01:33:14.723Z,10.33
2023-04-10T01:35:45.601Z,9.80
2023-04-10T01:38:14.061Z,10.80
2023-04-10T01:40:50.096Z,10.80
2023-04-10T01:43:19.116Z,10.83
2023-04-10T01:45:52.169Z,10.03
2023-04-10T01:48:20.942Z,11.33
2023-04-10T01:50:49.739Z,11.53
2023-04-10T01:53:18.763Z,12.10
2023-04-10T01:55:46.994Z,11.90
2023-04-10T01:58:15.491Z,12.13
2023-04-10T02:00:44.711Z,11.30
2023-04-10T02:03:14.399Z,11.63
2023-04-10T02:06:12.041Z,11.10
2023-04-10T02:08:45.284Z,9.77
2023-04-10T02:11:18.790Z,10.70
2023-04-10T02:13:48.127Z,10.47
2023-04-10T02:16:20.473Z,9.77
2023-04-10T02:18:52.080Z,9.53
2023-04-10T02:21:20.671Z,9.33
2023-04-10T02:23:49.617Z,8.70
2023-04-10T02:26:17.520Z,9.80
2023-04-10T02:28:45.491Z,11.20
2023-04-10T02:31:14.516Z,9.40
2023-04-10T02:33:42.547Z,9.83
2023-04-10T02:36:12.977Z,10.23
2023-04-10T02:38:40.887Z,8.87
2023-04-10T02:41:08.850Z,10.63
2023-04-10T02:43:37.586Z,8.57
2023-04-10T02:46:06.015Z,10.47
2023-04-10T02:48:33.980Z,10.17
2023-04-10T02:51:02.351Z,11.20
2023-04-10T02:53:31.733Z,9.27
2023-04-10T02:55:59.761Z,8.63
2023-04-10T02:58:30.548Z,8.67
2023-04-10T03:00:58.557Z,10.60
2023-04-10T03:03:27.239Z,9.30
2023-04-10T03:05:55.809Z,9.37
2023-04-10T03:08:23.933Z,8.43
2023-04-10T03:10:53.445Z,8.53
2023-04-10T03:13:23.350Z,8.07
2023-04-10T03:15:51.413Z,6.77
2023-04-10T03:18:19.404Z,8.63
2023-04-10T03:20:47.393Z,7.47
2023-04-10T03:23:15.823Z,7.73
2023-04-10T03:25:44.321Z,7.77
2023-04-10T03:28:13.830Z,9.30
2023-04-10T03:30:41.832Z,9.07
2023-04-10T03:33:09.996Z,7.23
2023-04-10T03:35:38.023Z,7.90
2023-04-10T03:38:06.200Z,8.43
2023-04-10T03:40:34.464Z,8.90
2023-04-10T03:43:02.497Z,7.73
2023-04-10T03:45:31.769Z,11.03
2023-04-10T03:48:00.625Z,9.40
2023-04-10T03:50:28.681Z,9.10
2023-04-10T03:52:56.680Z,10.27
2023-04-10T03:55:25.041Z,9.00
2023-04-10T03:57:53.158Z,10.23
2023-04-10T04:00:22.254Z,9.73
2023-04-10T04:02:52.331Z,7.83
2023-04-10T04:05:20.813Z,8.87
2023-04-10T04:07:48.907Z,9.73
2023-04-10T04:10:17.009Z,9.40
2023-04-10T04:12:44.945Z,10.07
2023-04-10T04:15:12.925Z,9.63
2023-04-10T04:17:40.922Z,9.77
2023-04-10T04:20:11.294Z,9.73
2023-04-10T04:22:39.222Z,8.83
2023-04-10T04:25:10.752Z,8.43
2023-04-10T04:27:39.976Z,8.57
2023-04-10T04:30:09.241Z,9.20
2023-04-10T04:32:37.284Z,8.90
2023-04-10T04:35:05.809Z,9.70
2023-04-10T04:37:35.344Z,7.20
2023-04-10T04:40:04.005Z,9.10
2023-04-10T04:42:32.107Z,8.60
2023-04-10T04:45:00.364Z,8.97
2023-04-10T04:47:29.782Z,11.63
2023-04-10T04:49:57.935Z,9.00
2023-04-10T04:52:27.477Z,9.87
2023-04-10T04:54:56.832Z,8.30
2023-04-10T04:57:25.049Z,9.73
2023-04-10T04:59:53.283Z,10.87
2023-04-10T05:02:22.917Z,7.53
2023-04-10T05:04:51.127Z,8.27
2023-04-10T05:07:19.069Z,11.83
2023-04-10T05:09:46.948Z,9.57
2023-04-10T05:12:16.585Z,9.37
2023-04-10T05:14:46.121Z,10.03
2023-04-10T05:17:15.104Z,10.60
2023-04-10T05:19:43.034Z,8.53
2023-04-10T05:22:11.793Z,9.80
2023-04-10T05:24:40.777Z,9.43
2023-04-10T05:27:08.671Z,10.13
2023-04-10T05:29:38.040Z,9.57
2023-04-10T05:32:07.321Z,9.47
2023-04-10T05:34:35.194Z,10.37
2023-04-10T05:37:03.121Z,17.00
2023-04-10T05:39:31.759Z,16.57
2023-04-10T05:42:01.830Z,19.23
2023-04-10T05:44:30.234Z,18.07
2023-04-10T05:46:59.861Z,15.27
2023-04-10T05:49:27.898Z,14.00
2023-04-10T05:51:55.746Z,13.47
2023-04-10T05:54:23.810Z,13.20
2023-04-10T05:56:51.882Z,11.10
2023-04-10T05:59:19.919Z,13.13
2023-04-10T06:01:48.818Z,12.33
2023-04-10T06:04:18.310Z,12.20
2023-04-10T06:06:46.388Z,11.73
2023-04-10T06:09:14.382Z,11.83
2023-04-10T06:11:43.086Z,12.43
2023-04-10T06:14:11.027Z,11.83
2023-04-10T06:16:39.378Z,10.40
2023-04-10T06:19:07.713Z,8.77
2023-04-10T06:21:37.919Z,9.23
2023-04-10T06:24:06.496Z,9.33
2023-04-10T06:26:35.623Z,8.33
2023-04-10T06:29:03.825Z,9.03
2023-04-10T06:31:35.320Z,8.40
2023-04-10T06:34:03.686Z,8.70
2023-04-10T06:36:31.960Z,8.77
2023-04-10T06:39:02.857Z,8.97
2023-04-10T06:41:30.866Z,9.63
2023-04-10T06:44:00.498Z,8.40
2023-04-10T06:46:29.723Z,9.27
2023-04-10T06:48:58.271Z,7.90
2023-04-10T06:51:27.772Z,12.97
2023-04-10T06:53:56.201Z,29.93
2023-04-10T06:56:26.028Z,20.67
2023-04-10T06:58:54.233Z,11.53
2023-04-10T07:01:22.356Z,10.07
2023-04-10T07:03:50.736Z,8.70
2023-04-10T07:06:19.606Z,9.93
2023-04-10T07:08:49.399Z,9.90
2023-04-10T07:11:17.419Z,10.13
2023-04-10T07:13:46.823Z,10.07
2023-04-10T07:16:15.055Z,9.80
2023-04-10T07:18:44.266Z,10.60
2023-04-10T07:21:13.664Z,12.60
2023-04-10T07:23:42.370Z,12.70
2023-04-10T07:26:10.479Z,12.80
2023-04-10T07:28:38.933Z,13.90
2023-04-10T07:31:08.970Z,12.97
2023-04-10T07:33:37.253Z,16.07
2023-04-10T07:36:06.112Z,12.23
2023-04-10T07:38:34.274Z,13.77
2023-04-10T07:41:02.411Z,11.83
2023-04-10T07:43:30.707Z,12.07
2023-04-10T07:45:58.922Z,12.83
2023-04-10T07:48:28.226Z,12.07
2023-04-10T07:50:56.439Z,12.90
2023-04-10T07:53:24.322Z,11.73
2023-04-10T07:55:53.648Z,11.63
2023-04-10T07:58:22.814Z,10.97
2023-04-10T08:00:50.811Z,11.97
2023-04-10T08:03:19.217Z,10.90
2023-04-10T08:05:48.913Z,11.27
2023-04-10T08:08:17.350Z,11.00
2023-04-10T08:10:45.475Z,11.27
2023-04-10T08:13:13.550Z,11.05
2023-04-10T08:15:41.790Z,11.73
2023-04-10T08:18:09.786Z,11.15
2023-04-10T08:20:37.871Z,12.18
2023-04-10T08:23:19.801Z,11.75
2023-04-10T08:25:48.699Z,10.07
2023-04-10T08:28:16.816Z,11.23
2023-04-10T08:30:44.896Z,10.38
2023-04-10T08:33:12.857Z,11.43
2023-04-10T08:35:41.030Z,11.52
2023-04-10T08:38:14.281Z,11.68
2023-04-10T08:40:44.943Z,10.88
2023-04-10T08:43:13.008Z,10.40
2023-04-10T08:45:42.308Z,9.45
2023-04-10T08:48:12.967Z,10.55
2023-04-10T08:50:43.527Z,9.13
2023-04-10T08:53:15.528Z,9.43
2023-04-10T08:55:46.482Z,9.38
2023-04-10T08:58:15.029Z,8.98
2023-04-10T09:00:43.115Z,9.85
2023-04-10T09:03:14.189Z,9.57
2023-04-10T09:05:42.672Z,8.63
2023-04-10T09:08:12.276Z,7.35
2023-04-10T09:10:41.799Z,7.53
2023-04-10T09:13:34.276Z,7.15
2023-04-10T09:16:02.599Z,7.03
2023-04-10T09:18:45.057Z,7.38
2023-04-10T09:21:15.380Z,8.00
2023-04-10T09:23:44.557Z,8.23
2023-04-10T09:26:28.502Z,8.38
2023-04-10T09:29:01.892Z,7.65
2023-04-10T09:31:34.072Z,8.57
2023-04-10T09:34:14.697Z,8.05
2023-04-10T09:36:43.417Z,7.78
2023-04-10T09:39:13.213Z,8.20
2023-04-10T09:41:50.936Z,8.00
2023-04-10T09:44:20.873Z,8.07
2023-04-10T09:46:49.710Z,7.60
2023-04-10T09:49:17.810Z,7.53
2023-04-10T09:51:47.453Z,7.38
2023-04-10T09:54:15.840Z,6.88
2023-04-10T09:56:47.286Z,7.50
2023-04-10T09:59:19.136Z,6.93
2023-04-10T10:01:47.473Z,6.25
2023-04-10T10:04:17.455Z,6.35
2023-04-10T10:06:46.816Z,6.20
2023-04-10T10:09:16.154Z,6.22
2023-04-10T10:11:44.202Z,5.65
2023-04-10T10:14:19.916Z,6.60
2023-04-10T10:16:51.776Z,7.38
2023-04-10T10:19:28.242Z,6.00
2023-04-10T10:21:57.027Z,6.55
2023-04-10T10:24:27.403Z,5.60
2023-04-10T10:26:57.335Z,6.93
2023-04-10T10:29:27.235Z,6.05
2023-04-10T10:31:56.693Z,5.43
2023-04-10T10:34:25.784Z,7.03
2023-04-10T10:36:53.765Z,6.50
2023-04-10T10:39:33.843Z,5.47
2023-04-10T10:42:10.177Z,5.85
2023-04-10T10:44:45.592Z,6.22
2023-04-10T10:47:19.032Z,5.68
2023-04-10T10:49:54.429Z,6.05
2023-04-10T10:52:42.737Z,6.50
2023-04-10T10:55:35.254Z,5.70
2023-04-10T10:58:05.230Z,5.65
2023-04-10T11:01:20.241Z,5.38
2023-04-10T11:03:50.124Z,4.68
2023-04-10T11:06:19.650Z,5.32
2023-04-10T11:08:49.042Z,5.05
2023-04-10T11:11:19.762Z,7.22
2023-04-10T11:14:18.122Z,6.00
2023-04-10T11:16:48.392Z,6.05
2023-04-10T11:19:22.611Z,5.97
2023-04-10T11:22:10.701Z,6.53
2023-04-10T11:24:53.549Z,5.78
2023-04-10T11:27:46.438Z,4.97
2023-04-10T11:30:34.746Z,4.63
2023-04-10T11:33:04.503Z,4.90
2023-04-10T11:35:34.573Z,5.57
2023-04-10T11:38:19.307Z,6.32
2023-04-10T11:41:06.672Z,5.68
2023-04-10T11:43:36.024Z,6.13
2023-04-10T11:46:06.406Z,5.97
2023-04-10T11:48:35.293Z,5.10
2023-04-10T11:51:12.231Z,4.55
2023-04-10T11:53:40.814Z,4.82
2023-04-10T11:56:17.805Z,5.20
2023-04-10T11:58:46.044Z,5.57
2023-04-10T12:01:15.589Z,5.05
2023-04-10T12:03:45.970Z,4.65
2023-04-10T12:06:16.760Z,6.68
2023-04-10T12:08:47.702Z,4.90
2023-04-10T12:11:16.212Z,5.35
2023-04-10T12:13:44.239Z,5.00
2023-04-10T12:16:13.063Z,4.68
2023-04-10T12:18:41.751Z,5.25
2023-04-10T12:21:10.130Z,5.18
2023-04-10T12:23:40.897Z,5.15
2023-04-10T12:26:12.098Z,4.38
2023-04-10T12:28:42.285Z,4.90
2023-04-10T12:31:10.808Z,4.57
2023-04-10T12:33:39.082Z,4.65
2023-04-10T12:36:07.623Z,4.88
2023-04-10T12:38:41.627Z,4.93
2023-04-10T12:41:11.327Z,4.60
2023-04-10T12:43:41.460Z,4.93
2023-04-10T12:46:11.325Z,5.20
2023-04-10T12:48:39.451Z,4.72
2023-04-10T12:51:08.083Z,5.65
2023-04-10T12:53:46.124Z,4.15
2023-04-10T12:56:14.744Z,5.30
2023-04-10T12:58:43.119Z,4.80
2023-04-10T13:01:11.529Z,4.50
2023-04-10T13:03:39.916Z,3.90
2023-04-10T13:06:08.760Z,4.78
2023-04-10T13:08:37.079Z,3.95
2023-04-10T13:11:07.117Z,4.72
2023-04-10T13:13:35.063Z,4.32
2023-04-10T13:16:03.352Z,5.00
2023-04-10T13:18:31.570Z,4.88
2023-04-10T13:20:59.554Z,4.22
2023-04-10T13:23:27.503Z,4.68
2023-04-10T13:25:56.801Z,4.43
2023-04-10T13:28:26.136Z,4.30
2023-04-10T13:30:54.177Z,4.47
2023-04-10T13:33:22.313Z,4.80
2023-04-10T13:35:50.325Z,4.45
2023-04-10T13:38:20.000Z,5.22
2023-04-10T13:40:49.371Z,4.70
2023-04-10T13:43:17.452Z,5.10
2023-04-10T13:45:46.852Z,5.07
2023-04-10T13:48:17.617Z,4.82
2023-04-10T13:50:46.860Z,4.63
2023-04-10T13:53:14.929Z,4.63
2023-04-10T13:55:43.779Z,5.07
2023-04-10T13:58:13.385Z,4.13
2023-04-10T14:00:41.520Z,4.53
2023-04-10T14:03:08.400Z,4.90
2023-04-10T14:05:37.718Z,4.43
2023-04-10T14:08:06.089Z,4.47
2023-04-10T14:10:34.173Z,5.32
2023-04-10T14:13:02.073Z,5.60
2023-04-10T14:15:30.108Z,4.55
2023-04-10T14:17:58.217Z,4.88
2023-04-10T14:20:26.712Z,4.40
2023-04-10T14:22:56.083Z,4.13
2023-04-10T14:25:24.101Z,4.35
2023-04-10T14:27:52.125Z,4.07
2023-04-10T14:30:20.322Z,4.10
2023-04-10T14:32:48.281Z,4.10
2023-04-10T14:35:16.333Z,5.05
2023-04-10T14:37:44.354Z,4.13
2023-04-10T14:40:13.958Z,5.07
2023-04-10T14:42:41.926Z,4.68
2023-04-10T14:45:11.732Z,4.57
2023-04-10T14:47:39.758Z,4.35
2023-04-10T14:50:09.325Z,3.80
2023-04-10T14:52:37.603Z,3.97
2023-04-10T14:55:06.429Z,4.00
2023-04-10T14:57:36.161Z,3.92
2023-04-10T15:00:04.355Z,4.18
2023-04-10T15:02:32.369Z,4.63
2023-04-10T15:05:00.443Z,4.13
2023-04-10T15:07:28.697Z,3.90
2023-04-10T15:09:58.281Z,3.85
2023-04-10T15:12:26.455Z,4.57
2023-04-10T15:14:56.244Z,4.75
2023-04-10T15:17:25.184Z,4.15
2023-04-10T15:19:53.362Z,3.67
2023-04-10T15:22:21.343Z,3.50
2023-04-10T15:24:50.887Z,4.05
2023-04-10T15:27:20.823Z,3.47
2023-04-10T15:29:49.054Z,4.03
2023-04-10T15:32:18.508Z,4.65
2023-04-10T15:34:46.700Z,3.60
2023-04-10T15:37:14.633Z,3.67
2023-04-10T15:39:42.662Z,4.18
2023-04-10T15:42:10.578Z,3.35
2023-04-10T15:44:38.742Z,4.47
2023-04-10T15:47:06.763Z,3.97
2023-04-10T15:49:38.176Z,4.05
2023-04-10T15:52:06.952Z,4.15
2023-04-10T15:54:35.288Z,4.20
2023-04-10T15:57:03.868Z,3.53
2023-04-10T15:59:33.346Z,3.85
2023-04-10T16:02:01.484Z,4.18
2023-04-10T16:04:29.791Z,4.45
2023-04-10T16:06:59.245Z,4.17
2023-04-10T16:09:27.307Z,3.95
2023-04-10T16:11:56.123Z,4.57
2023-04-10T16:14:24.296Z,4.35
2023-04-10T16:16:52.294Z,3.65
2023-04-10T16:19:20.265Z,3.63
2023-04-10T16:21:48.242Z,4.05
2023-04-10T16:24:17.584Z,3.58
2023-04-10T16:26:45.556Z,4.35
2023-04-10T16:29:13.450Z,4.57
2023-04-10T16:31:41.452Z,4.13
2023-04-10T16:34:09.497Z,4.30
2023-04-10T16:36:37.319Z,3.75
2023-04-10T16:39:05.728Z,3.70
2023-04-10T16:41:35.056Z,3.40
2023-04-10T16:44:03.243Z,4.10
2023-04-10T16:46:33.130Z,4.13
2023-04-10T16:49:01.566Z,3.80
2023-04-10T16:51:29.544Z,3.50
2023-04-10T16:53:57.431Z,3.40
2023-04-10T16:56:25.522Z,3.37
2023-04-10T16:58:55.144Z,3.53
2023-04-10T17:01:26.173Z,3.90
2023-04-10T17:03:54.913Z,3.60
2023-04-10T17:06:23.178Z,3.67
2023-04-10T17:08:51.285Z,3.50
2023-04-10T17:11:19.269Z,4.23
2023-04-10T17:13:47.560Z,4.67
2023-04-10T17:16:17.050Z,4.75
2023-04-10T17:18:45.171Z,4.73
2023-04-10T17:21:13.374Z,5.80
2023-04-10T17:23:42.222Z,7.73
2023-04-10T17:26:15.070Z,7.53
2023-04-10T17:28:45.141Z,8.90
2023-04-10T17:31:13.747Z,8.13
2023-04-10T17:33:43.598Z,9.23
2023-04-10T17:36:13.060Z,8.23
2023-04-10T17:38:41.565Z,6.53
2023-04-10T17:41:10.761Z,6.77
2023-04-10T17:43:38.627Z,5.73
2023-04-10T17:46:07.369Z,4.50
2023-04-10T17:48:35.549Z,7.40
2023-04-10T17:51:07.610Z,4.63
2023-04-10T17:53:36.090Z,3.90
2023-04-10T17:56:04.261Z,5.57
2023-04-10T17:58:32.441Z,5.53
2023-04-10T18:01:00.808Z,7.43
2023-04-10T18:03:29.005Z,7.60
2023-04-10T18:05:57.130Z,6.87
2023-04-10T18:08:27.104Z,6.07
2023-04-10T18:10:55.174Z,8.53
2023-04-10T18:13:23.052Z,7.43
2023-04-10T18:15:50.989Z,6.50
2023-04-10T18:18:18.969Z,7.47
2023-04-10T18:20:46.848Z,9.03
2023-04-10T18:23:14.848Z,5.40
2023-04-10T18:25:53.361Z,7.57
2023-04-10T18:28:21.482Z,8.87
2023-04-10T18:30:49.619Z,9.43
2023-04-10T18:33:23.077Z,9.27
2023-04-10T18:35:52.590Z,11.47
2023-04-10T18:38:20.956Z,12.80
2023-04-10T18:40:50.911Z,10.53
2023-04-10T18:43:18.808Z,9.17
2023-04-10T18:45:46.741Z,7.97
2023-04-10T18:48:14.913Z,6.27
2023-04-10T18:50:43.067Z,4.43
2023-04-10T18:53:11.206Z,4.17
2023-04-10T18:55:39.230Z,4.17
2023-04-10T18:58:09.082Z,4.87
2023-04-10T19:00:37.211Z,4.73
2023-04-10T19:03:05.407Z,5.53
2023-04-10T19:05:34.428Z,5.53
2023-04-10T19:08:04.803Z,5.30
2023-04-10T19:10:33.224Z,5.30
2023-04-10T19:13:01.622Z,5.30
2023-04-10T19:15:31.436Z,5.20
2023-04-10T19:17:59.444Z,5.27
2023-04-10T19:20:52.318Z,5.93
2023-04-10T19:23:15.489Z,5.67
2023-04-10T19:25:43.779Z,4.30
2023-04-10T19:28:12.323Z,4.07
2023-04-10T19:30:41.768Z,5.03
2023-04-10T19:33:10.099Z,4.40
2023-04-10T19:35:38.134Z,3.73
2023-04-10T19:38:06.173Z,5.77
2023-04-10T19:40:34.737Z,4.33
2023-04-10T19:43:02.703Z,4.50
2023-04-10T19:45:32.439Z,5.30
2023-04-10T19:48:01.967Z,5.50
2023-04-10T19:50:31.257Z,3.97
2023-04-10T19:52:59.591Z,4.13
2023-04-10T19:55:28.109Z,3.70
2023-04-10T19:57:56.178Z,3.70
2023-04-10T20:00:24.115Z,4.03
2023-04-10T20:02:52.345Z,3.27
2023-04-10T20:05:22.326Z,3.63
2023-04-10T20:07:50.592Z,3.37
2023-04-10T20:10:18.648Z,2.87
2023-04-10T20:12:46.639Z,3.17
2023-04-10T20:15:14.810Z,3.20
2023-04-10T20:17:42.780Z,3.87
2023-04-10T20:20:12.772Z,2.87
2023-04-10T20:22:43.100Z,3.40
2023-04-10T20:25:11.384Z,3.87
2023-04-10T20:27:39.429Z,3.27
2023-04-10T20:30:08.709Z,3.33
2023-04-10T20:32:37.168Z,2.83
2023-04-10T20:35:05.590Z,2.90
2023-04-10T20:37:33.589Z,2.77
2023-04-10T20:40:05.929Z,3.13
2023-04-10T20:42:33.992Z,3.60
2023-04-10T20:45:01.934Z,3.40
2023-04-10T20:47:30.064Z,2.97
2023-04-10T20:49:58.087Z,3.13
2023-04-10T20:52:26.088Z,2.73
2023-04-10T20:54:54.042Z,3.47
2023-04-10T20:57:23.869Z,2.90
2023-04-10T20:59:52.001Z,3.13
2023-04-10T21:02:20.219Z,2.70
2023-04-10T21:04:48.244Z,3.40
2023-04-10T21:07:16.194Z,2.70
2023-04-10T21:09:44.292Z,2.90
2023-04-10T21:12:12.245Z,3.27
2023-04-10T21:14:41.625Z,2.90
2023-04-10T21:17:09.646Z,2.97
2023-04-10T21:19:37.619Z,3.27
2023-04-10T21:22:05.674Z,3.17
2023-04-10T21:24:33.708Z,2.87
2023-04-10T21:27:01.743Z,2.77
2023-04-10T21:29:30.160Z,3.67
2023-04-10T21:31:59.739Z,3.13
2023-04-10T21:34:27.855Z,3.20
2023-04-10T21:36:56.038Z,3.17
2023-04-10T21:39:24.148Z,2.80
2023-04-10T21:41:52.354Z,2.60
2023-04-10T21:44:21.125Z,2.97
2023-04-10T21:46:49.229Z,3.97
2023-04-10T21:49:18.642Z,3.23
2023-04-10T21:51:46.673Z,3.37
2023-04-10T21:54:14.646Z,3.40
2023-04-10T21:56:42.855Z,3.10
2023-04-10T21:59:10.978Z,3.07
2023-04-10T22:01:41.656Z,3.40
2023-04-10T22:04:10.017Z,3.07
2023-04-10T22:06:39.522Z,3.17
2023-04-10T22:09:07.472Z,3.80
2023-04-10T22:11:39.002Z,2.70
2023-04-10T22:14:15.922Z,3.23
2023-04-10T22:16:46.113Z,2.83
2023-04-10T22:19:14.155Z,3.00
2023-04-10T22:21:43.581Z,3.33
2023-04-10T22:24:11.651Z,3.17
2023-04-10T22:26:42.048Z,2.93
2023-04-10T22:29:10.086Z,3.17
2023-04-10T22:31:38.128Z,2.80
2023-04-10T22:34:06.012Z,3.10
2023-04-10T22:36:34.633Z,3.40
2023-04-10T22:39:04.528Z,3.70
2023-04-10T22:41:33.158Z,3.10
2023-04-10T22:44:01.279Z,3.30
2023-04-10T22:46:29.327Z,3.00
2023-04-10T22:48:57.809Z,3.60
2023-04-10T22:51:26.841Z,3.57
2023-04-10T22:53:54.886Z,3.60
2023-04-10T22:56:26.555Z,3.43
2023-04-10T22:58:54.810Z,3.73
2023-04-10T23:01:23.164Z,4.10
2023-04-10T23:03:53.814Z,2.90
2023-04-10T23:06:22.060Z,2.90
2023-04-10T23:08:49.980Z,3.10
2023-04-10T23:11:18.035Z,2.97
2023-04-10T23:13:48.812Z,3.00
2023-04-10T23:16:16.792Z,4.03
2023-04-10T23:18:44.648Z,3.33
2023-04-10T23:21:12.479Z,3.07
2023-04-10T23:23:40.285Z,3.47
2023-04-10T23:26:08.588Z,4.00
2023-04-10T23:28:36.497Z,3.83
2023-04-10T23:31:05.932Z,3.63
2023-04-10T23:33:33.842Z,4.10
2023-04-10T23:36:01.684Z,3.10
2023-04-10T23:38:29.539Z,2.73
2023-04-10T23:40:57.458Z,3.17
2023-04-10T23:43:25.319Z,3.30
2023-04-10T23:45:53.241Z,3.60
2023-04-10T23:48:22.366Z,3.50
2023-04-10T23:50:50.270Z,3.33
2023-04-10T23:53:18.112Z,3.40
2023-04-10T23:55:45.917Z,3.40
2023-04-10T23:58:13.743Z,3.57
